Terminal Aerodrome Forecast
Issued by NWS

Home | Current Version | Previous Version | Text Only | Print | Product List | Glossary On
Versions: 1 2 3 4 5 6 7 8 9 10 11 12 13 14 15 16 17 18 19 20 21 22 23 24 25 26
000
FTUS44 KLZK 180200 AAA
TAFHRO
TAF AMD
KHRO 180205Z 1802/1824 14003KT 4SM BR SCT004 BKN060
      TEMPO 1802/1806 1SM BR BKN007
     FM180600 20004KT 3SM BR SCT002 BKN012
     FM181000 31003KT 2SM BR VCSH OVC012
     FM181600 34005KT P6SM BKN020 OVC035
     FM181900 02005KT P6SM SCT025=

USA.gov is the U.S. government's official web portal to all federal, state and local government web resources and services.